createdAt,value
2023-01-04T00:03:21.067Z,101216.94
2023-01-04T00:05:47.942Z,101212.25
2023-01-04T00:08:16.143Z,101208.59
2023-01-04T00:10:43.919Z,101200.94
2023-01-04T00:13:10.548Z,101203.94
2023-01-04T00:15:37.719Z,101188.63
2023-01-04T00:18:04.937Z,101182.84
2023-01-04T00:20:34.994Z,101185.44
2023-01-04T00:23:09.254Z,101166.50
2023-01-04T00:25:39.048Z,101170.44
2023-01-04T00:28:05.979Z,101166.59
2023-01-04T00:30:33.475Z,101155.69
2023-01-04T00:33:06.493Z,101148.41
2023-01-04T00:35:46.307Z,101153.03
2023-01-04T00:38:16.450Z,101158.91
2023-01-04T00:40:45.276Z,101142.09
2023-01-04T00:43:12.694Z,101137.72
2023-01-04T00:45:39.624Z,101135.66
2023-01-04T00:48:11.072Z,101123.25
2023-01-04T00:50:37.981Z,101122.19
2023-01-04T00:53:04.634Z,101107.72
2023-01-04T00:55:32.074Z,101110.31
2023-01-04T00:58:01.289Z,101096.03
2023-01-04T01:00:31.044Z,101099.25
2023-01-04T01:02:58.163Z,101079.78
2023-01-04T01:05:28.392Z,101072.59
2023-01-04T01:08:01.149Z,101071.63
2023-01-04T01:10:29.963Z,101061.25
2023-01-04T01:12:57.009Z,101049.72
2023-01-04T01:15:23.668Z,101044.59
2023-01-04T01:17:50.275Z,101033.25
2023-01-04T01:20:20.002Z,101033.25
2023-01-04T01:22:47.115Z,101025.44
2023-01-04T01:25:13.825Z,101014.41
2023-01-04T01:27:40.923Z,101018.91
2023-01-04T01:30:09.094Z,101014.31
2023-01-04T01:32:36.202Z,101012.59
2023-01-04T01:35:04.679Z,101001.03
2023-01-04T01:37:31.407Z,100996.75
2023-01-04T01:39:58.093Z,100996.75
2023-01-04T01:42:24.798Z,101005.53
2023-01-04T01:45:10.903Z,101003.81
2023-01-04T01:47:49.803Z,100988.41
2023-01-04T01:50:35.490Z,100973.59
2023-01-04T01:53:09.720Z,100971.03
2023-01-04T01:55:40.883Z,100970.19
2023-01-04T01:58:21.393Z,100970.81
2023-01-04T02:00:50.960Z,100958.19
2023-01-04T02:03:42.488Z,100957.84
2023-01-04T02:06:21.215Z,100955.75
2023-01-04T02:08:57.550Z,100942.53
2023-01-04T02:11:36.100Z,100936.44
2023-01-04T02:14:26.675Z,100926.31
2023-01-04T02:16:56.546Z,100918.53
2023-01-04T02:19:47.954Z,100896.78
2023-01-04T02:23:00.990Z,100899.69
2023-01-04T02:26:08.307Z,100880.44
2023-01-04T02:29:43.292Z,100862.06
2023-01-04T02:32:58.321Z,100838.81
2023-01-04T02:35:59.794Z,100841.50
2023-01-04T02:39:15.375Z,100826.19
2023-01-04T02:42:06.892Z,100818.53
2023-01-04T02:45:05.970Z,100810.28
2023-01-04T02:47:58.012Z,100800.78
2023-01-04T02:51:00.195Z,100795.44
2023-01-04T02:53:38.105Z,100787.16
2023-01-04T02:56:38.474Z,100783.16
2023-01-04T02:59:35.002Z,100779.75
2023-01-04T03:03:08.268Z,100747.63
2023-01-04T03:06:27.743Z,100738.03
2023-01-04T03:09:21.759Z,100723.91
2023-01-04T03:12:21.241Z,100714.91
2023-01-04T03:15:01.758Z,100701.03
2023-01-04T03:17:42.866Z,100694.94
2023-01-04T03:20:17.037Z,100678.25
2023-01-04T03:23:34.281Z,100667.19
2023-01-04T03:26:34.486Z,100664.28
2023-01-04T03:30:06.137Z,100654.31
2023-01-04T03:33:32.277Z,100643.00
2023-01-04T03:36:54.075Z,100630.25
2023-01-04T03:40:09.009Z,100620.84
2023-01-04T03:43:39.209Z,100610.41
2023-01-04T03:46:43.929Z,100608.69
2023-01-04T03:49:36.540Z,100608.69
2023-01-04T03:52:08.927Z,100602.28
2023-01-04T03:54:41.929Z,100594.47
2023-01-04T03:57:27.085Z,100581.25
2023-01-04T04:00:06.156Z,100582.19
2023-01-04T04:02:37.258Z,100578.56
2023-01-04T04:05:26.629Z,100572.22
2023-01-04T04:08:12.106Z,100559.94
2023-01-04T04:10:45.118Z,100552.88
2023-01-04T04:13:21.175Z,100559.22
2023-01-04T04:15:49.202Z,100548.41
2023-01-04T04:18:15.831Z,100528.69
2023-01-04T04:20:42.643Z,100531.09
2023-01-04T04:23:12.445Z,100515.91
2023-01-04T04:25:39.202Z,100506.19
2023-01-04T04:28:06.679Z,100505.94
2023-01-04T04:30:36.733Z,100506.78
2023-01-04T04:33:06.717Z,100484.78
2023-01-04T04:35:37.480Z,100486.59
2023-01-04T04:38:06.377Z,100478.47
2023-01-04T04:40:59.282Z,100481.00
2023-01-04T04:43:27.433Z,100466.88
2023-01-04T04:45:54.208Z,100464.81
2023-01-04T04:48:29.264Z,100457.53
2023-01-04T04:51:00.375Z,100439.63
2023-01-04T04:53:36.636Z,100430.75
2023-01-04T04:56:03.678Z,100433.31
2023-01-04T04:58:42.589Z,100419.94
2023-01-04T05:01:16.825Z,100421.50
2023-01-04T05:03:46.033Z,100421.50
2023-01-04T05:06:20.451Z,100395.31
2023-01-04T05:08:52.415Z,100393.38
2023-01-04T05:11:39.372Z,100392.97
2023-01-04T05:14:11.345Z,100383.84
2023-01-04T05:16:52.353Z,100377.63
2023-01-04T05:19:22.037Z,100369.75
2023-01-04T05:21:56.955Z,100361.34
2023-01-04T05:24:33.320Z,100352.31
2023-01-04T05:27:15.231Z,100335.28
2023-01-04T07:48:59.620Z,100011.31
2023-01-04T09:15:14.836Z,99917.56
2023-01-04T09:25:53.803Z,99904.88
2023-01-04T09:45:28.348Z,99900.88
2023-01-04T10:45:48.108Z,99842.44
2023-01-04T11:07:26.026Z,99818.91
2023-01-04T11:27:27.625Z,99785.38
2023-01-04T11:35:59.580Z,99769.88
2023-01-04T12:10:22.314Z,99737.47
2023-01-04T12:12:49.304Z,99717.91
2023-01-04T12:15:39.459Z,99723.97
2023-01-04T12:18:34.308Z,99732.06
2023-01-04T12:21:03.355Z,99713.19
2023-01-04T12:23:31.296Z,99718.53
2023-01-04T12:26:01.970Z,99718.38
2023-01-04T12:28:41.818Z,99718.03
2023-01-04T12:31:21.945Z,99715.16
2023-01-04T12:34:18.931Z,99708.09
2023-01-04T12:36:48.538Z,99703.38
2023-01-04T12:39:15.202Z,99706.06
2023-01-04T12:42:03.781Z,99704.03
2023-01-04T12:44:36.692Z,99713.25
2023-01-04T12:47:49.667Z,99707.69
2023-01-04T12:50:27.629Z,99711.38
2023-01-04T12:53:50.881Z,99723.88
2023-01-04T12:56:25.779Z,99698.28
2023-01-04T12:59:32.052Z,99717.16
2023-01-04T13:02:29.991Z,99733.03
2023-01-04T13:08:14.987Z,99714.97
2023-01-04T13:10:51.626Z,99705.56
2023-01-04T13:13:51.035Z,99717.84
2023-01-04T13:16:32.716Z,99724.25
2023-01-04T13:19:17.635Z,99696.47
2023-01-04T13:21:57.647Z,99730.50
2023-01-04T13:24:35.399Z,99718.50
2023-01-04T13:27:19.841Z,99717.50
2023-01-04T13:29:48.953Z,99690.53
2023-01-04T13:32:30.665Z,99711.09
2023-01-04T13:35:15.287Z,99710.25
2023-01-04T13:37:49.927Z,99694.91
2023-01-04T13:40:37.156Z,99705.16
2023-01-04T13:43:56.673Z,99700.94
2023-01-04T13:46:29.315Z,99698.25
2023-01-04T13:49:03.173Z,99702.28
2023-01-04T13:51:37.775Z,99694.88
2023-01-04T13:54:21.183Z,99697.72
2023-01-04T13:56:55.165Z,99693.97
2023-01-04T13:59:23.400Z,99699.88
2023-01-04T14:01:51.439Z,99693.94
2023-01-04T14:04:31.456Z,99681.59
2023-01-04T14:07:02.572Z,99682.44
2023-01-04T14:09:43.742Z,99639.66
2023-01-04T14:12:29.692Z,99678.75
2023-01-04T14:15:12.880Z,99679.00
2023-01-04T14:17:51.754Z,99669.09
2023-01-04T14:20:24.262Z,99666.44
2023-01-04T14:22:56.035Z,99668.66
2023-01-04T14:25:36.758Z,99661.91
2023-01-04T14:28:22.576Z,99649.47
2023-01-04T14:31:00.210Z,99650.00
2023-01-04T14:33:41.611Z,99651.50
2023-01-04T14:36:17.135Z,99658.59
2023-01-04T14:39:04.127Z,99664.81
2023-01-04T14:41:49.241Z,99654.19
2023-01-04T14:44:30.713Z,99659.75
2023-01-04T14:47:06.310Z,99649.72
2023-01-04T14:49:38.281Z,99650.91
2023-01-04T14:52:20.975Z,99628.03
2023-01-04T14:54:47.717Z,99629.75
2023-01-04T14:57:14.781Z,99612.25
2023-01-04T14:59:44.054Z,99611.91
2023-01-04T15:02:10.979Z,99624.06
2023-01-04T15:04:40.836Z,99621.38
2023-01-04T15:07:31.131Z,99645.78
2023-01-04T15:09:57.759Z,99644.94
2023-01-04T15:12:26.843Z,99643.25
2023-01-04T15:14:53.831Z,99634.19
2023-01-04T15:17:20.495Z,99629.34
2023-01-04T15:38:59.944Z,99614.13
2023-01-04T15:41:48.160Z,99612.78
2023-01-04T15:49:33.415Z,99620.88
2023-01-04T15:57:25.905Z,99609.75
2023-01-04T16:08:17.133Z,99614.09
2023-01-04T16:32:41.164Z,99614.16
2023-01-04T16:37:50.014Z,99605.59
2023-01-04T17:32:53.931Z,99605.13
2023-01-04T18:49:08.850Z,99593.00
2023-01-04T18:51:36.407Z,99590.84
2023-01-04T19:40:43.087Z,99562.25
2023-01-04T20:29:40.001Z,99553.84
2023-01-04T20:32:09.900Z,99549.84
2023-01-04T20:54:12.921Z,99539.75
2023-01-04T21:21:37.263Z,99545.13
2023-01-04T21:29:28.919Z,99539.09
2023-01-04T21:31:56.237Z,99541.09
2023-01-04T21:34:27.975Z,99546.28
2023-01-04T21:36:54.707Z,99549.50
2023-01-04T21:39:26.620Z,99532.00
2023-01-04T21:41:54.245Z,99533.84
2023-01-04T21:44:21.029Z,99536.53
2023-01-04T21:46:59.463Z,99535.53
2023-01-04T21:49:26.243Z,99535.53
2023-01-04T21:51:53.160Z,99536.03
2023-01-04T21:54:19.959Z,99537.03
2023-01-04T21:56:50.275Z,99544.59
2023-01-04T21:59:17.076Z,99537.03
2023-01-04T22:01:44.484Z,99547.63
2023-01-04T22:04:11.283Z,99540.41
2023-01-04T22:06:41.119Z,99549.66
2023-01-04T22:09:07.853Z,99535.84
2023-01-04T22:11:34.751Z,99539.22
2023-01-04T22:14:01.365Z,99540.06
2023-01-04T22:16:29.486Z,99534.00
2023-01-04T22:18:56.351Z,99534.66
2023-01-04T22:21:28.620Z,99545.63
2023-01-04T22:23:55.397Z,99543.28
2023-01-04T22:26:22.821Z,99544.78
2023-01-04T22:28:54.018Z,99540.75
2023-01-04T22:31:20.872Z,99538.91
2023-01-04T22:33:48.731Z,99554.50
2023-01-04T22:36:24.699Z,99531.34
2023-01-04T22:38:55.828Z,99543.94
2023-01-04T22:41:28.065Z,99560.59
2023-01-04T22:44:08.726Z,99536.72
2023-01-04T22:46:39.282Z,99548.16
2023-01-04T22:49:06.141Z,99548.00
2023-01-04T22:51:42.970Z,99536.88
2023-01-04T22:54:16.269Z,99548.81
2023-01-04T22:56:43.905Z,99551.31
2023-01-04T22:59:13.394Z,99558.03
2023-01-04T23:01:40.424Z,99540.56
2023-01-04T23:04:07.614Z,99557.72
2023-01-04T23:06:40.305Z,99558.56
2023-01-04T23:09:15.835Z,99556.88
2023-01-04T23:11:48.454Z,99549.84
2023-01-04T23:14:23.802Z,99557.38
2023-01-04T23:16:50.647Z,99565.78
2023-01-04T23:19:20.769Z,99562.25
2023-01-04T23:21:54.041Z,99571.81
2023-01-04T23:24:20.839Z,99563.09
2023-01-04T23:26:47.563Z,99558.06
2023-01-04T23:29:14.563Z,99575.88
2023-01-04T23:31:41.335Z,99598.22
2023-01-04T23:34:11.617Z,99604.94
2023-01-04T23:36:42.886Z,99604.38
2023-01-04T23:39:16.243Z,99613.44
2023-01-04T23:41:49.407Z,99622.47
2023-01-04T23:44:28.358Z,99628.50
2023-01-04T23:46:58.879Z,99641.59
2023-01-04T23:49:30.778Z,99645.25
2023-01-04T23:51:57.597Z,99644.69
2023-01-04T23:54:30.606Z,99656.88
2023-01-04T23:57:00.360Z,99671.56
2023-01-04T23:59:35.413Z,99658.00
